createdAt,value
2018-12-17T00:05:55.170Z,21.67
2018-12-17T00:16:11.611Z,23.70
2018-12-17T00:26:26.746Z,26.63
2018-12-17T00:36:42.498Z,25.47
2018-12-17T00:46:57.725Z,26.13
2018-12-17T00:57:13.444Z,21.77
2018-12-17T01:07:31.210Z,24.17
2018-12-17T01:17:46.432Z,20.60
2018-12-17T01:28:02.931Z,20.07
2018-12-17T01:38:17.873Z,23.10
2018-12-17T01:48:33.157Z,21.43
2018-12-17T01:58:48.683Z,19.10
2018-12-17T02:09:06.018Z,20.77
2018-12-17T02:19:21.722Z,19.83
2018-12-17T02:29:37.326Z,19.17
2018-12-17T02:39:52.226Z,19.93
2018-12-17T02:50:08.035Z,20.50
2018-12-17T03:00:22.922Z,17.80
2018-12-17T03:10:38.694Z,19.60
2018-12-17T03:20:54.122Z,17.47
2018-12-17T03:31:09.885Z,16.20
2018-12-17T03:41:24.603Z,14.93
2018-12-17T03:51:40.219Z,14.67
2018-12-17T04:01:55.072Z,14.87
2018-12-17T04:12:10.365Z,17.23
2018-12-17T04:22:26.410Z,15.33
2018-12-17T04:32:42.125Z,15.53
2018-12-17T04:42:57.710Z,12.33
2018-12-17T04:53:13.288Z,13.25
2018-12-17T05:03:28.892Z,13.10
2018-12-17T05:13:44.208Z,13.63
2018-12-17T05:23:59.799Z,13.33
2018-12-17T05:34:15.061Z,15.33
2018-12-17T05:44:30.516Z,15.83
2018-12-17T05:54:45.925Z,16.02
2018-12-17T06:05:00.806Z,13.33
2018-12-17T06:15:16.330Z,13.93
2018-12-17T06:25:31.254Z,12.80
2018-12-17T06:35:46.886Z,17.97
2018-12-17T06:46:02.532Z,16.37
2018-12-17T06:56:18.011Z,15.00
2018-12-17T07:06:33.499Z,18.33
2018-12-17T07:16:49.044Z,20.33
2018-12-17T07:27:04.732Z,16.40
2018-12-17T07:37:20.460Z,19.67
2018-12-17T07:47:35.960Z,19.53
2018-12-17T07:57:51.427Z,21.23
2018-12-17T08:08:07.837Z,20.30
2018-12-17T08:18:23.365Z,17.92
2018-12-17T08:28:38.365Z,19.27
2018-12-17T08:38:53.054Z,14.23
2018-12-17T08:49:08.723Z,14.57
2018-12-17T08:59:24.618Z,13.33
2018-12-17T09:09:39.823Z,15.10
2018-12-17T09:19:55.176Z,17.40
2018-12-17T09:30:10.804Z,14.55
2018-12-17T09:40:26.223Z,17.87
2018-12-17T09:50:41.641Z,17.03
2018-12-17T10:00:56.563Z,18.87
2018-12-17T10:11:12.111Z,17.57
2018-12-17T10:21:27.753Z,15.17
2018-12-17T10:31:43.123Z,13.63
2018-12-17T10:41:59.888Z,17.80
2018-12-17T10:52:15.464Z,13.67
2018-12-17T11:02:33.966Z,13.20
2018-12-17T11:12:48.784Z,17.83
2018-12-17T11:23:04.477Z,15.03
2018-12-17T11:33:19.855Z,11.73
2018-12-17T11:43:35.495Z,14.63
2018-12-17T11:53:51.673Z,12.37
2018-12-17T12:04:07.053Z,11.00
2018-12-17T12:14:22.744Z,12.20
2018-12-17T12:24:38.475Z,9.50
2018-12-17T12:34:54.644Z,10.30
2018-12-17T12:45:09.684Z,8.93
2018-12-17T12:55:25.280Z,13.35
2018-12-17T13:05:40.103Z,8.03
2018-12-17T13:15:55.841Z,12.23
2018-12-17T13:26:10.944Z,9.40
2018-12-17T13:36:26.236Z,10.37
2018-12-17T13:46:41.804Z,9.37
2018-12-17T13:56:56.819Z,10.77
2018-12-17T14:17:36.079Z,8.80
2018-12-17T14:27:51.313Z,11.70
2018-12-17T14:38:06.700Z,9.65
2018-12-17T14:48:22.228Z,10.87
2018-12-17T14:58:44.184Z,9.53
2018-12-17T15:08:55.755Z,13.30
2018-12-17T15:19:11.346Z,8.85
2018-12-17T15:29:26.785Z,14.68
2018-12-17T15:39:42.602Z,14.13
2018-12-17T15:49:57.269Z,10.47
2018-12-17T16:00:12.683Z,11.27
2018-12-17T16:10:28.677Z,14.20
2018-12-17T16:20:44.866Z,11.30
2018-12-17T16:31:00.366Z,15.80
2018-12-17T16:41:16.354Z,19.77
2018-12-17T16:51:31.379Z,17.43
2018-12-17T17:01:46.933Z,14.67
2018-12-17T17:12:02.371Z,17.60
2018-12-17T17:22:17.942Z,18.70
2018-12-17T17:32:33.339Z,12.97
2018-12-17T17:42:48.029Z,19.23
2018-12-17T17:53:03.837Z,18.73
2018-12-17T18:03:19.488Z,19.67
2018-12-17T18:13:35.074Z,15.77
2018-12-17T18:23:50.379Z,16.00
2018-12-17T18:34:05.750Z,30.30
2018-12-17T18:44:21.434Z,23.47
2018-12-17T18:54:37.200Z,23.87
2018-12-17T19:04:52.942Z,25.90
2018-12-17T19:15:08.558Z,31.57
2018-12-17T19:25:24.180Z,26.00
2018-12-17T19:35:39.652Z,24.23
2018-12-17T19:45:55.097Z,28.07
2018-12-17T19:56:09.793Z,24.80
2018-12-17T20:06:24.685Z,23.07
2018-12-17T20:16:40.307Z,28.37
2018-12-17T20:26:55.820Z,28.93
2018-12-17T20:37:11.381Z,26.33
2018-12-17T20:47:26.232Z,29.40
2018-12-17T20:57:40.803Z,27.60
2018-12-17T21:07:55.606Z,24.73
2018-12-17T21:18:11.152Z,31.77
2018-12-17T21:28:26.761Z,25.87
2018-12-17T21:38:42.059Z,30.20
2018-12-17T21:48:57.643Z,26.00
2018-12-17T21:59:13.429Z,29.67
2018-12-17T22:09:28.095Z,25.83
2018-12-17T22:19:42.897Z,24.07
2018-12-17T22:29:58.346Z,24.53
2018-12-17T22:40:14.743Z,30.47
2018-12-17T22:50:30.330Z,31.50
2018-12-17T23:00:46.124Z,31.93
2018-12-17T23:11:07.260Z,29.33
2018-12-17T23:21:22.464Z,29.30
2018-12-17T23:31:37.965Z,34.27
2018-12-17T23:41:53.570Z,27.90
2018-12-17T23:52:09.143Z,30.80
